| time (UTC) | temp F | wind direction | speed knots | gust knots | rain 1hr in | rain 24hr in | rain mn in | humidity % | barometer mb |
| 20260507153137 | 53 | 355 | 2.6 | 0.0 | 0.00 | 0.00 | 0.00 | 68 | 1017.8 |
| 20260507150121 | 52 | 13 | 1.7 | 0.0 | 0.00 | 0.00 | 0.00 | 67 | 1017.7 |
| 20260507143134 | 52 | 316 | 1.7 | 0.0 | 0.00 | 0.00 | 0.00 | 68 | 1017.6 |
| 20260507140131 | 51 | 360 | 1.7 | 0.0 | 0.00 | 0.00 | 0.00 | 69 | 1017.3 |
| 20260507133119 | 51 | 22 | 0.9 | 0.0 | 0.00 | 0.00 | 0.00 | 70 | 1017.3 |
| 20260507130152 | 51 | 360 | 1.7 | 0.0 | 0.00 | 0.00 | 0.00 | 69 | 1017.3 |
| 20260507123131 | 52 | 10 | 0.9 | 0.0 | 0.00 | 0.00 | 0.00 | 70 | 1017.4 |
| 20260507120132 | 52 | 10 | 1.7 | 0.0 | 0.00 | 0.00 | 0.00 | 69 | 1017.6 |
| 20260507113142 | 53 | 299 | 0.9 | 0.0 | 0.00 | 0.00 | 0.00 | 69 | 1017.6 |
| 20260507110140 | 53 | 333 | 0.9 | 0.0 | 0.00 | 0.00 | 0.00 | 69 | 1017.7 |
| 20260507103153 | 53 | 284 | 0.9 | 0.0 | 0.00 | 0.00 | 0.00 | 69 | 1017.8 |
| 20260507100120 | 54 | 13 | 0.9 | 0.0 | 0.00 | 0.00 | 0.00 | 69 | 1018.0 |
| 20260507093128 | 54 | 30 | 1.7 | 0.0 | 0.00 | 0.00 | 0.00 | 69 | 1018.2 |
| 20260507090120 | 54 | 348 | 1.7 | 0.0 | 0.00 | 0.00 | 0.00 | 70 | 1018.3 |
| 20260507083123 | 55 | 16 | 0.9 | 0.0 | 0.00 | 0.00 | 0.00 | 70 | 1018.3 |
| 20260507080114 | 55 | 350 | 0.9 | 0.0 | 0.00 | 0.00 | 0.00 | 71 | 1018.3 |
| 20260507073121 | 55 | 351 | 1.7 | 0.0 | 0.00 | 0.00 | 0.00 | 72 | 1018.2 |
| 20260507070120 | 55 | 313 | 1.7 | 0.0 | 0.00 | 0.00 | 0.00 | 71 | 1018.2 |
| 20260507063125 | 55 | 284 | 1.7 | 0.0 | 0.00 | 0.00 | 0.00 | 72 | 1018.3 |
| 20260507060142 | 55 | 347 | 1.7 | 0.0 | 0.00 | 0.00 | 0.00 | 72 | 1018.3 |
| 20260507053126 | 56 | 28 | 1.7 | 0.0 | 0.00 | 0.00 | 0.00 | 69 | 1018.2 |
| 20260507050113 | 57 | 348 | 3.5 | 0.0 | 0.00 | 0.00 | 0.00 | 68 | 1018.3 |
| 20260507043114 | 57 | 323 | 3.5 | 0.0 | 0.00 | 0.00 | 0.00 | 68 | 1018.0 |
| 20260507040127 | 58 | 327 | 3.5 | 0.0 | 0.00 | 0.00 | 0.00 | 68 | 1017.7 |
| 20260507033114 | 59 | 312 | 1.7 | 0.0 | 0.00 | 0.00 | 0.00 | 68 | 1017.2 |
| 20260507030118 | 60 | 360 | 1.7 | 0.0 | 0.00 | 0.00 | 0.00 | 66 | 1016.9 |
| 20260507023126 | 62 | 313 | 2.6 | 0.0 | 0.00 | 0.00 | 0.00 | 63 | 1016.8 |
| 20260507020125 | 64 | 300 | 3.5 | 0.0 | 0.00 | 0.00 | 0.00 | 61 | 1016.9 |
| 20260507013129 | 65 | 25 | 3.5 | 0.0 | 0.00 | 0.00 | 0.00 | 60 | 1016.8 |
| 20260507010115 | 66 | 327 | 1.7 | 0.0 | 0.00 | 0.00 | 0.00 | 63 | 1016.7 |
| 20260507003120 | 66 | 5 | 2.6 | 0.0 | 0.00 | 0.00 | 0.00 | 63 | 1016.7 |
| 20260507000131 | 67 | 27 | 3.5 | 0.0 | 0.00 | 0.00 | 0.00 | 60 | 1016.7 |
| 20260506233142 | 67 | 56 | 2.6 | 0.0 | 0.00 | 0.00 | 0.00 | 60 | 1016.7 |
| 20260506230131 | 67 | 42 | 1.7 | 0.0 | 0.00 | 0.00 | 0.00 | 57 | 1016.9 |
| 20260506223151 | 67 | 316 | 1.7 | 0.0 | 0.00 | 0.00 | 0.00 | 58 | 1017.3 |
| 20260506220122 | 68 | 218 | 0.9 | 0.0 | 0.00 | 0.00 | 0.00 | 58 | 1017.3 |
| 20260506213150 | 66 | 302 | 0.9 | 0.0 | 0.00 | 0.00 | 0.00 | 62 | 1017.7 |
| 20260506210113 | 63 | 360 | 1.7 | 0.0 | 0.00 | 0.00 | 0.00 | 67 | 1017.8 |
| 20260506203122 | 62 | 10 | 1.7 | 0.0 | 0.00 | 0.00 | 0.00 | 69 | 1017.7 |
| 20260506200200 | 62 | 40 | 1.7 | 0.0 | 0.00 | 0.00 | 0.00 | 69 | 1017.9 |
| 20260506193114 | 61 | 34 | 1.7 | 0.0 | 0.00 | 0.00 | 0.00 | 70 | 1017.9 |
| 20260506190126 | 61 | 265 | 0.9 | 0.0 | 0.00 | 0.00 | 0.00 | 70 | 1017.8 |
| 20260506183127 | 60 | 5 | 1.7 | 0.0 | 0.00 | 0.00 | 0.00 | 72 | 1017.8 |
| 20260506180117 | 59 | 5 | 1.7 | 0.0 | 0.00 | 0.00 | 0.00 | 72 | 1017.8 |
| 20260506173121 | 59 | 311 | 0.0 | 0.0 | 0.00 | 0.00 | 0.00 | 73 | 1017.7 |
| 20260506170134 | 59 | 350 | 1.7 | 0.0 | 0.00 | 0.00 | 0.00 | 74 | 1017.5 |
| 20260506163136 | 58 | 342 | 0.9 | 0.0 | 0.00 | 0.00 | 0.00 | 73 | 1017.3 |
| 20260506160119 | 57 | 128 | 0.0 | 0.0 | 0.00 | 0.00 | 0.00 | 77 | 1016.8 |